createdAt,value
2022-07-25T00:03:18.424Z,23.60
2022-07-25T00:08:21.278Z,23.40
2022-07-25T00:18:26.020Z,23.30
2022-07-25T00:23:28.142Z,23.20
2022-07-25T00:33:32.857Z,23.00
2022-07-25T00:38:35.154Z,23.00
2022-07-25T00:43:37.459Z,22.90
2022-07-25T00:53:42.651Z,22.70
2022-07-25T01:03:47.854Z,22.70
2022-07-25T01:08:50.873Z,22.70
2022-07-25T01:13:53.264Z,22.70
2022-07-25T01:18:55.497Z,22.60
2022-07-25T01:23:57.715Z,22.50
2022-07-25T01:34:02.458Z,22.50
2022-07-25T01:44:07.825Z,22.30
2022-07-25T01:49:10.674Z,22.30
2022-07-25T01:54:12.989Z,22.20
2022-07-25T01:59:15.661Z,22.20
2022-07-25T02:04:17.897Z,22.20
2022-07-25T02:09:20.145Z,22.20
2022-07-25T02:14:22.974Z,22.20
2022-07-25T02:19:25.132Z,22.20
2022-07-25T02:34:32.430Z,22.10
2022-07-25T02:39:34.606Z,22.00
2022-07-25T02:44:36.758Z,22.00
2022-07-25T02:54:41.508Z,21.90
2022-07-25T03:09:48.868Z,21.80
2022-07-25T03:14:51.047Z,21.70
2022-07-25T03:19:53.216Z,21.70
2022-07-25T03:24:55.365Z,21.60
2022-07-25T03:40:04.852Z,21.40
2022-07-25T03:45:07.609Z,21.40
2022-07-25T03:50:10.041Z,21.30
2022-07-25T04:00:15.027Z,21.30
2022-07-25T04:05:17.255Z,21.20
2022-07-25T04:10:19.394Z,21.20
2022-07-25T04:15:21.753Z,21.20
2022-07-25T04:20:23.979Z,21.10
2022-07-25T04:40:55.356Z,21.10
2022-07-25T04:45:57.681Z,21.10
2022-07-25T05:01:05.298Z,21.20
2022-07-25T05:06:15.282Z,21.20
2022-07-25T05:11:19.630Z,21.30
2022-07-25T05:21:24.539Z,21.40
2022-07-25T05:26:26.785Z,21.50
2022-07-25T05:36:31.632Z,21.80
2022-07-25T05:56:45.062Z,22.60
2022-07-25T06:06:52.360Z,23.20
2022-07-25T06:12:00.455Z,23.60
2022-07-25T06:17:03.243Z,24.00
2022-07-25T06:22:05.461Z,24.30
2022-07-25T06:27:08.883Z,24.60
2022-07-25T06:37:13.825Z,25.30
2022-07-25T06:42:16.057Z,25.70
2022-07-25T06:47:18.767Z,26.00
2022-07-25T06:52:21.068Z,26.30
2022-07-25T07:02:25.846Z,26.90
2022-07-25T07:07:27.999Z,27.20
2022-07-25T07:12:30.171Z,27.40
2022-07-25T07:22:48.438Z,27.90
2022-07-25T07:27:51.669Z,28.20
2022-07-25T07:32:53.834Z,28.40
2022-07-25T07:37:55.982Z,28.60
2022-07-25T07:48:06.121Z,29.00
2022-07-25T07:53:08.349Z,29.20
2022-07-25T07:58:12.307Z,29.40
2022-07-25T08:03:18.723Z,29.60
2022-07-25T08:08:26.640Z,29.80
2022-07-25T08:13:36.185Z,30.00
2022-07-25T08:18:38.312Z,30.20
2022-07-25T08:23:40.697Z,30.30
2022-07-25T08:28:42.939Z,30.60
2022-07-25T08:33:45.144Z,30.80
2022-07-25T08:38:47.321Z,31.10
2022-07-25T08:43:50.762Z,31.30
2022-07-25T08:48:53.328Z,31.50
2022-07-25T08:53:55.889Z,31.70
2022-07-25T09:04:02.846Z,32.20
2022-07-25T09:09:05.480Z,32.40
2022-07-25T09:14:14.277Z,32.60
2022-07-25T09:19:22.939Z,32.80
2022-07-25T09:24:25.142Z,33.00
2022-07-25T09:29:31.339Z,33.30
2022-07-25T09:34:37.744Z,33.50
2022-07-25T09:39:47.305Z,33.80
2022-07-25T09:45:12.736Z,34.10
2022-07-25T09:55:17.731Z,34.60
2022-07-25T10:00:23.467Z,34.90
2022-07-25T10:05:51.708Z,35.10
2022-07-25T10:10:53.993Z,35.20
2022-07-25T10:15:56.258Z,35.30
2022-07-25T10:21:50.117Z,35.50
2022-07-25T10:32:06.840Z,36.00
2022-07-25T10:37:09.936Z,36.20
2022-07-25T10:47:22.298Z,36.60
2022-07-25T10:52:28.587Z,36.90
2022-07-25T10:57:32.186Z,37.00
2022-07-25T11:02:34.839Z,37.30
2022-07-25T11:07:37.074Z,37.30
2022-07-25T11:12:39.273Z,37.50
2022-07-25T11:17:51.271Z,37.50
2022-07-25T11:22:55.090Z,37.60
2022-07-25T11:27:59.079Z,37.80
2022-07-25T11:33:01.552Z,37.90
2022-07-25T11:38:04.097Z,38.10
2022-07-25T11:43:19.170Z,38.10
2022-07-25T11:48:22.803Z,38.10
2022-07-25T11:53:26.016Z,38.10
2022-07-25T11:58:28.382Z,38.00
2022-07-25T12:03:38.524Z,38.00
2022-07-25T12:08:42.428Z,37.90
2022-07-25T12:13:44.663Z,37.60
2022-07-25T12:23:49.596Z,37.30
2022-07-25T12:28:52.869Z,37.20
2022-07-25T12:33:55.947Z,37.20
2022-07-25T12:38:58.150Z,37.20
2022-07-25T12:44:02.779Z,37.20
2022-07-25T12:54:09.146Z,37.70
2022-07-25T12:59:11.570Z,37.80
2022-07-25T13:04:13.779Z,37.80
2022-07-25T13:09:15.992Z,37.70
2022-07-25T13:19:21.491Z,37.70
2022-07-25T13:24:24.303Z,37.50
2022-07-25T13:29:26.483Z,37.30
2022-07-25T13:34:29.685Z,37.20
2022-07-25T13:39:31.891Z,36.90
2022-07-25T13:44:34.138Z,36.60
2022-07-25T13:49:37.031Z,36.40
2022-07-25T13:54:39.541Z,36.20
2022-07-25T14:04:44.465Z,36.30
2022-07-25T14:09:46.678Z,36.70
2022-07-25T14:14:48.826Z,37.50
2022-07-25T14:19:51.002Z,37.80
2022-07-25T14:24:53.257Z,38.90
2022-07-25T14:29:55.416Z,39.50
2022-07-25T14:35:00.817Z,40.10
2022-07-25T14:40:04.241Z,40.60
2022-07-25T14:45:08.350Z,41.10
2022-07-25T14:50:11.089Z,41.60
2022-07-25T14:55:13.330Z,41.50
2022-07-25T15:00:15.686Z,41.50
2022-07-25T15:05:17.989Z,41.60
2022-07-25T15:10:20.288Z,41.80
2022-07-25T15:15:22.506Z,41.70
2022-07-25T15:20:24.715Z,41.50
2022-07-25T15:25:59.927Z,41.10
2022-07-25T15:30:50.368Z,41.10
2022-07-25T15:35:52.503Z,41.30
2022-07-25T15:40:55.154Z,41.90
2022-07-25T15:45:57.889Z,42.50
2022-07-25T15:51:00.475Z,43.00
2022-07-25T15:56:02.822Z,43.40
2022-07-25T16:01:05.121Z,43.60
2022-07-25T16:06:07.647Z,43.70
2022-07-25T16:16:12.611Z,42.40
2022-07-25T16:21:44.553Z,41.40
2022-07-25T16:26:48.076Z,40.50
2022-07-25T16:48:19.776Z,37.80
2022-07-25T16:53:22.103Z,37.80
2022-07-25T16:58:25.147Z,37.80
2022-07-25T17:03:27.337Z,37.60
2022-07-25T17:13:34.089Z,37.30
2022-07-25T17:18:37.151Z,36.80
2022-07-25T17:23:39.329Z,36.20
2022-07-25T17:28:41.533Z,35.50
2022-07-25T17:43:49.212Z,34.70
2022-07-25T17:48:51.516Z,34.50
2022-07-25T17:58:56.438Z,33.80
2022-07-25T18:03:58.655Z,33.60
2022-07-25T18:09:00.913Z,33.40
2022-07-25T18:14:03.239Z,33.30
2022-07-25T18:19:05.752Z,33.10
2022-07-25T18:24:08.421Z,32.90
2022-07-25T18:29:11.214Z,32.70
2022-07-25T18:34:13.444Z,32.60
2022-07-25T18:39:15.869Z,32.40
2022-07-25T18:44:19.342Z,32.20
2022-07-25T18:49:22.701Z,32.00
2022-07-25T18:54:24.934Z,31.90
2022-07-25T18:59:27.155Z,31.70
2022-07-25T19:04:30.148Z,31.50
2022-07-25T19:09:32.418Z,31.40
2022-07-25T19:14:34.649Z,31.10
2022-07-25T19:24:39.703Z,30.80
2022-07-25T19:29:43.217Z,30.70
2022-07-25T19:34:45.432Z,30.50
2022-07-25T19:39:48.974Z,30.40
2022-07-25T19:44:51.536Z,30.30
2022-07-25T19:49:54.587Z,30.10
2022-07-25T20:00:00.573Z,29.80
2022-07-25T20:05:04.429Z,29.70
2022-07-25T20:10:07.196Z,29.50
2022-07-25T20:15:09.673Z,29.50
2022-07-25T20:20:12.804Z,29.40
2022-07-25T20:25:15.228Z,29.40
2022-07-25T20:30:17.985Z,29.30
2022-07-25T20:35:20.619Z,29.20
2022-07-25T20:40:22.910Z,29.10
2022-07-25T20:45:24.962Z,29.00
2022-07-25T20:50:27.186Z,28.90
2022-07-25T20:55:31.340Z,28.80
2022-07-25T21:00:34.232Z,28.70
2022-07-25T21:05:40.020Z,28.70
2022-07-25T21:10:43.447Z,28.60
2022-07-25T21:15:45.650Z,28.50
2022-07-25T21:20:48.828Z,28.50
2022-07-25T21:25:51.002Z,28.50
2022-07-25T21:46:01.459Z,28.10
2022-07-25T21:56:10.130Z,27.80
2022-07-25T22:01:12.288Z,27.60
2022-07-25T22:11:39.115Z,27.40
2022-07-25T22:16:39.433Z,27.30
2022-07-25T22:21:42.386Z,27.30
2022-07-25T22:26:44.623Z,27.20
2022-07-25T22:36:51.780Z,27.10
2022-07-25T22:41:54.617Z,27.10
2022-07-25T22:46:56.764Z,27.00
2022-07-25T22:52:00.613Z,27.00
2022-07-25T22:57:06.966Z,26.90
2022-07-25T23:02:14.253Z,26.80
2022-07-25T23:07:16.720Z,26.90
2022-07-25T23:12:18.906Z,26.90
2022-07-25T23:22:26.671Z,26.80
2022-07-25T23:27:29.793Z,26.80
2022-07-25T23:32:37.293Z,26.70
2022-07-25T23:37:39.897Z,26.60
2022-07-25T23:42:42.159Z,26.30
2022-07-25T23:47:44.482Z,26.20
2022-07-25T23:52:46.671Z,26.10
